Latest Weather Observations for Kilmore Gap

IDV60801

Issued at 1:02 pm EST Sunday 30 April 2017 (issued every 30 minutes, with the page automatically refreshed every 10 minutes)

About weather observations | Map of weather stations | Latest weather observations for VIC | Other Formats
Station Details ID: 088162 Name: KILMORE GAP Lat: -37.38 Lon: 144.97 Height: 527.8 m
Data from the previous 72 hours. | See also: Recent months at Kilmore Gap
Date/Time
EST
Temp
°C
App
Temp
°C
Dew
Point
°C
Rel
Hum
%
Delta-T
°C
Wind Press
QNH
hPa
Press
MSL
hPa
Rain since
9am
mm
Dir  Spd
km/h
Gust
km/h
Spd
kts
Gust
kts
30/01:00pm 12.3 8.6 7.8 74 2.3 NNW 17 22 9 12 1021.5 1021.0 0.0
30/12:30pm 13.1 8.9 7.5 69 2.8 NNW 19 28 10 15 1021.9 1021.4 0.0
30/12:00pm 12.0 8.4 6.9 71 2.5 NNW 15 20 8 11 1022.3 1021.8 0.0
30/11:30am 11.0 8.2 7.1 77 1.9 WNW 11 15 6 8 1022.8 1022.3 0.0
30/11:00am 11.1 7.1 6.6 74 2.2 N 17 32 9 17 1023.0 1022.5 0.0
30/10:30am 10.6 7.4 6.9 78 1.8 NNW 13 17 7 9 1023.1 1022.6 0.0
30/10:00am 10.3 7.1 7.0 80 1.6 NW 13 17 7 9 1023.2 1022.7 0.0
30/09:30am 10.2 7.5 7.3 82 1.4 NW 11 15 6 8 1023.3 1022.8 0.0
30/09:25am 10.0 7.6 6.9 81 1.5 NW 9 15 5 8 1023.3 1022.8 0.0
30/09:00am 9.9 7.5 7.0 82 1.4 W 9 13 5 7 1023.5 1023.0 0.4
30/08:30am 9.7 7.8 6.6 81 1.5 WNW 6 7 3 4 1023.4 1022.9 0.4
30/08:00am 9.2 8.4 6.5 83 1.3 CALM 0 0 0 0 1023.0 1022.5 0.4
30/07:55am 9.0 8.2 6.6 85 1.1 CALM 0 0 0 0 1022.9 1022.4 0.4
30/07:30am 8.9 8.0 6.2 83 1.3 CALM 0 0 0 0 1022.9 1022.4 0.4
30/07:00am 8.8 8.0 6.3 84 1.2 CALM 0 0 0 0 1022.8 1022.3 0.4
30/06:38am 8.9 8.0 6.2 83 1.3 CALM 0 0 0 0 1022.7 1022.1 0.4
30/06:30am 9.0 7.8 6.3 83 1.3 SSE 2 7 1 4 1022.6 1022.0 0.4
30/06:00am 9.0 7.5 6.6 85 1.1 SSE 4 7 2 4 1022.6 1022.0 0.4
30/05:30am 9.3 7.2 6.6 83 1.3 S 7 13 4 7 1022.8 1022.3 0.4
30/05:00am 9.2 7.5 7.6 90 0.8 SSW 6 9 3 5 1022.7 1022.1 0.4
30/04:30am 9.3 7.4 7.7 90 0.8 SW 7 9 4 5 1022.7 1022.1 0.4
30/04:08am 9.4 7.5 7.7 89 0.8 SSW 7 11 4 6 1022.8 1022.3 0.4
30/04:00am 9.4 7.8 7.8 90 0.8 SW 6 9 3 5 1022.8 1022.3 0.4
30/03:30am 9.5 7.4 8.1 91 0.7 SSW 9 13 5 7 1023.0 1022.5 0.4
30/03:00am 9.7 7.2 8.1 90 0.8 SW 11 17 6 9 1023.2 1022.7 0.4
30/02:30am 9.8 7.5 8.9 94 0.5 SW 11 17 6 9 1023.3 1022.8 0.4
30/02:00am 9.8 7.5 9.0 95 0.4 SSW 11 15 6 8 1023.4 1022.9 0.4
30/01:30am 10.0 7.8 9.2 95 0.4 SSW 11 15 6 8 1023.5 1023.0 0.4
30/01:00am 10.0 7.6 8.6 91 0.7 SSW 11 17 6 9 1023.5 1023.0 0.4
30/12:37am 10.0 7.9 9.9 99 0.1 SSW 11 17 6 9 1023.5 1023.0 0.4
30/12:36am 9.9 7.8 9.8 99 0.1 SSW 11 17 6 9 1023.5 1023.0 0.4
30/12:30am 10.1 8.4 10.0 99 0.1 SSW 9 13 5 7 1023.5 1023.0 0.4
30/12:23am 10.1 8.4 10.0 99 0.1 SSW 9 13 5 7 1023.6 1023.1 0.4
30/12:22am 10.1 8.4 10.0 99 0.1 SSW 9 13 5 7 1023.6 1023.1 0.4
30/12:21am 10.1 8.4 10.0 99 0.1 SSW 9 13 5 7 1023.6 1023.1 0.4
30/12:17am 10.1 8.1 10.0 99 0.1 SSW 11 15 6 8 1023.6 1023.1 0.4
30/12:00am 10.2 8.6 10.1 99 0.1 SSW 9 13 5 7 1023.6 1023.1 0.4
 
Date/Time
EST
Temp
°C
App
Temp
°C
Dew
Point
°C
Rel
Hum
%
Delta-T
°C
Wind Press
QNH
hPa
Press
MSL
hPa
Rain since
9am
mm
Dir  Spd
km/h
Gust
km/h
Spd
kts
Gust
kts
29/11:30pm 10.3 8.3 10.1 99 0.1 SSW 11 17 6 9 1023.6 1023.1 0.4
29/11:00pm 10.4 8.4 10.2 99 0.1 S 11 17 6 9 1023.7 1023.2 0.4
29/10:30pm 10.5 8.2 10.3 99 0.1 S 13 17 7 9 1023.7 1023.2 0.4
29/10:00pm 10.7 8.0 10.5 99 0.1 SSW 15 24 8 13 1023.7 1023.2 0.4
29/09:59pm 10.7 8.0 10.5 99 0.1 SSW 15 24 8 13 1023.7 1023.2 0.4
29/09:30pm 10.7 7.7 10.5 99 0.1 SSE 17 20 9 11 1023.7 1023.2 0.4
29/09:00pm 10.8 7.4 10.6 99 0.1 SSE 19 22 10 12 1023.7 1023.2 0.4
29/08:41pm 10.8 8.2 10.6 99 0.1 S 15 20 8 11 1023.6 1023.1 0.4
29/08:30pm 10.8 7.4 10.6 99 0.1 SSE 19 22 10 12 1023.6 1023.1 0.4
29/08:00pm 10.9 7.3 10.7 99 0.1 S 20 24 11 13 1023.5 1023.0 0.4
29/07:30pm 11.1 7.8 10.9 99 0.1 S 19 22 10 12 1023.5 1023.0 0.4
29/07:00pm 11.5 8.1 11.3 99 0.1 S 20 24 11 13 1023.5 1023.0 0.4
29/06:30pm 11.8 8.7 11.6 99 0.1 SSE 19 24 10 13 1023.3 1022.8 0.4
29/06:29pm 11.8 8.7 11.6 99 0.1 SSE 19 24 10 13 1023.3 1022.8 0.4
29/06:00pm 12.1 9.5 11.9 99 0.1 S 17 22 9 12 1023.1 1022.6 0.4
29/05:30pm 12.5 9.9 12.0 97 0.3 S 17 22 9 12 1022.9 1022.4 0.4
29/05:18pm 12.7 9.8 12.2 97 0.3 S 19 24 10 13 1022.8 1022.3 0.4
29/05:08pm 12.9 10.3 12.1 95 0.4 S 17 22 9 12 1022.8 1022.3 0.4
29/05:00pm 13.1 10.5 12.0 93 0.6 S 17 22 9 12 1022.8 1022.3 0.4
29/04:30pm 13.7 10.9 9.9 78 2.0 SW 15 20 8 11 1022.7 1022.1 0.4
29/04:00pm 13.8 11.1 10.4 80 1.8 SW 15 24 8 13 1022.7 1022.1 0.4
29/03:30pm 14.1 10.6 10.9 81 1.7 SW 20 30 11 16 1022.3 1021.8 0.4
29/03:00pm 14.8 12.1 10.2 74 2.5 SW 15 20 8 11 1022.3 1021.8 0.4
29/02:30pm 13.9 11.0 10.9 82 1.6 S 17 22 9 12 1022.3 1021.8 0.4
29/02:00pm 15.1 13.0 11.1 77 2.2 SSW 13 20 7 11 1022.2 1021.7 0.4
29/01:30pm 13.9 11.0 10.9 82 1.6 SSW 17 24 9 13 1022.6 1022.0 0.4
29/01:00pm 13.8 10.4 11.1 84 1.5 SW 20 30 11 16 1022.7 1022.1 0.4
29/12:42pm 13.6 10.4 11.8 89 1.0 SW 20 28 11 15 1023.0 1022.5 0.4
29/12:30pm 13.4 10.6 12.5 94 0.5 SW 19 26 10 14 1023.2 1022.7 0.4
29/12:22pm 13.1 10.3 12.6 97 0.3 SW 19 24 10 13 1023.3 1022.8 0.4
29/12:06pm 12.1 8.8 11.6 97 0.3 SW 20 32 11 17 1023.4 1022.9 0.4
29/12:00pm 12.7 10.5 12.1 96 0.3 SSW 15 30 8 16 1023.4 1022.9 0.4
29/11:30am 12.8 10.8 12.6 99 0.1 SSW 15 20 8 11 1023.5 1023.0 0.4
29/11:16am 12.3 10.1 12.0 98 0.2 SSW 15 22 8 12 1023.5 1023.0 0.4
29/11:07am 13.1 10.8 12.9 99 0.1 SSW 17 24 9 13 1023.5 1023.0 0.2
29/11:00am 12.4 10.2 12.2 99 0.1 SSW 15 24 8 13 1023.6 1023.1 0.2
29/10:30am 12.5 9.6 12.3 99 0.1 SW 19 30 10 16 1023.4 1022.9 0.2
29/10:03am 12.3 10.9 12.1 99 0.1 SW 11 17 6 9 1023.4 1022.9 0.0
29/10:00am 12.2 10.7 12.0 99 0.1 SW 11 17 6 9 1023.4 1022.9 0.0
29/09:59am 12.1 10.2 11.9 99 0.1 SW 13 20 7 11 1023.4 1022.9 0.0
29/09:30am 12.0 10.0 11.5 97 0.3 SW 13 19 7 10 1023.5 1023.0 0.0
29/09:25am 12.0 10.0 11.4 96 0.3 SW 13 19 7 10 1023.5 1023.0 0.0
29/09:00am 11.9 9.5 11.3 96 0.3 SW 15 22 8 12 1023.3 1022.8 0.0
29/08:46am 11.6 9.5 11.1 97 0.3 SW 13 19 7 10 1023.3 1022.8 0.0
29/08:32am 11.5 9.0 10.9 96 0.3 SW 15 22 8 12 1023.2 1022.7 0.0
29/08:30am 11.5 8.9 10.7 95 0.4 SW 15 22 8 12 1023.2 1022.7 0.0
29/08:00am 11.6 9.3 10.5 93 0.6 SW 13 17 7 9 1023.0 1022.5 0.0
29/07:30am 11.5 8.7 10.1 91 0.7 SW 15 20 8 11 1022.7 1022.1 0.0
29/07:16am 11.5 9.1 10.1 91 0.7 SW 13 17 7 9 1022.5 1021.9 0.0
29/07:01am 11.5 8.3 10.1 91 0.7 WSW 17 22 9 12 1022.5 1021.9 0.0
29/07:00am 11.5 8.3 9.9 90 0.8 WSW 17 22 9 12 1022.5 1021.9 0.0
29/06:30am 11.4 9.0 10.0 91 0.7 WSW 13 20 7 11 1022.5 1021.9 0.0
29/06:00am 11.5 9.0 9.8 89 0.9 SW 13 19 7 10 1022.3 1021.8 0.0
29/05:56am 11.5 9.0 9.8 89 0.9 SW 13 17 7 9 1022.3 1021.8 0.0
29/05:30am 11.6 7.9 9.5 87 1.1 WSW 19 26 10 14 1022.1 1021.6 0.0
29/05:00am 11.5 8.2 9.4 87 1.1 W 17 20 9 11 1022.0 1021.5 0.0
29/04:30am 11.5 8.5 9.4 87 1.1 SW 15 19 8 10 1022.1 1021.6 0.0
29/04:00am 11.5 8.9 9.2 86 1.2 SW 13 19 7 10 1022.2 1021.7 0.0
29/03:30am 11.6 9.0 9.2 85 1.2 WSW 13 20 7 11 1022.2 1021.7 0.0
29/03:00am 11.5 9.6 9.1 85 1.2 WSW 9 13 5 7 1022.3 1021.8 0.0
29/02:30am 11.8 8.4 9.0 83 1.4 WSW 17 22 9 12 1022.5 1021.9 0.0
29/02:00am 11.8 8.4 9.2 84 1.3 WSW 17 22 9 12 1022.7 1022.1 0.0
29/01:30am 11.6 9.0 9.5 87 1.1 WSW 13 17 7 9 1022.9 1022.4 0.0
29/01:00am 11.7 9.6 9.8 88 1.0 WSW 11 17 6 9 1022.9 1022.4 0.0
29/12:30am 12.0 9.9 9.9 87 1.1 WSW 11 17 6 9 1023.0 1022.5 0.0
29/12:00am 12.0 9.6 10.1 88 1.0 WSW 13 19 7 10 1023.1 1022.6 0.0
 
Date/Time
EST
Temp
°C
App
Temp
°C
Dew
Point
°C
Rel
Hum
%
Delta-T
°C
Wind Press
QNH
hPa
Press
MSL
hPa
Rain since
9am
mm
Dir  Spd
km/h
Gust
km/h
Spd
kts
Gust
kts
28/11:30pm 12.2 9.8 10.1 87 1.1 WSW 13 17 7 9 1023.3 1022.8 0.0
28/11:00pm 12.2 10.1 9.9 86 1.2 WSW 11 15 6 8 1023.4 1022.9 0.0
28/10:30pm 12.2 10.5 9.8 85 1.3 WSW 9 13 5 7 1023.6 1023.1 0.0
28/10:00pm 12.4 10.7 9.8 84 1.4 W 9 17 5 9 1023.5 1023.0 0.0
28/09:30pm 12.2 11.2 10.4 89 1.0 NW 6 9 3 5 1023.7 1023.2 0.0
28/09:00pm 12.2 10.7 10.6 90 0.8 NW 9 13 5 7 1023.5 1023.0 0.0
28/08:30pm 12.0 10.8 10.4 90 0.8 WNW 7 11 4 6 1023.5 1023.0 0.0
28/08:00pm 12.4 10.8 10.3 87 1.1 WNW 9 11 5 6 1023.6 1023.1 0.0
28/07:30pm 12.4 10.9 10.6 89 1.0 WNW 9 11 5 6 1023.6 1023.1 0.0
28/07:00pm 12.7 11.2 10.6 87 1.1 NW 9 13 5 7 1023.5 1023.0 0.0
28/06:30pm 12.4 11.0 10.8 90 0.9 NNW 9 11 5 6 1023.3 1022.8 0.0
28/06:00pm 12.8 11.9 10.5 86 1.2 NNW 6 7 3 4 1023.4 1022.9 0.0
28/05:30pm 12.9 11.9 11.0 88 1.0 NNW 7 9 4 5 1023.1 1022.6 0.0
28/05:00pm 14.0 12.1 9.2 73 2.5 WNW 9 11 5 6 1022.9 1022.4 0.0
28/04:30pm 14.1 12.0 9.7 75 2.3 W 11 15 6 8 1023.1 1022.6 0.0
28/04:00pm 14.3 12.7 10.1 76 2.2 WSW 9 13 5 7 1023.2 1022.7 0.0
28/03:30pm 13.9 12.6 11.2 84 1.5 WNW 9 19 5 10 1023.2 1022.7 0.0
28/03:00pm 13.0 11.2 10.9 87 1.1 N 11 13 6 7 1023.2 1022.7 0.0
28/02:30pm 12.8 11.5 11.2 90 0.9 N 9 13 5 7 1023.2 1022.7 0.0
28/02:00pm 12.2 10.3 10.4 89 1.0 N 11 13 6 7 1023.2 1022.7 0.0
28/01:30pm 12.3 10.1 10.7 90 0.9 N 13 15 7 8 1023.4 1022.9 0.0
28/01:00pm 12.2 10.4 10.8 91 0.7 N 11 13 6 7 1023.7 1023.2 0.0
28/12:47pm 11.6 9.6 10.3 92 0.7 N 11 15 6 8 1023.8 1023.3 0.0
28/12:30pm 11.4 9.1 10.3 93 0.6 N 13 15 7 8 1023.9 1023.4 0.0
28/12:00pm 11.1 8.3 10.0 93 0.6 N 15 17 8 9 1024.2 1023.7 0.0
28/11:35am 10.9 8.4 9.8 93 0.6 N 13 15 7 8 1024.5 1024.0 0.0
28/11:30am 11.1 8.7 9.9 92 0.6 N 13 15 7 8 1024.5 1024.0 0.0
28/11:00am 11.2 9.2 10.3 94 0.5 N 11 13 6 7 1024.5 1024.0 0.0
28/10:30am 10.8 8.8 10.0 95 0.4 N 11 13 6 7 1024.7 1024.2 0.0
28/10:00am 10.6 9.2 9.7 94 0.5 NNW 7 11 4 6 1024.7 1024.2 0.0
28/09:30am 9.6 7.7 9.0 96 0.3 NNW 9 11 5 6 1024.7 1024.2 0.0
28/09:00am 10.0 8.5 9.1 94 0.5 NW 7 11 4 6 1024.6 1024.1 0.4
28/08:30am 9.5 7.8 8.4 93 0.5 NNW 7 9 4 5 1024.3 1023.8 0.4
28/08:00am 10.0 7.8 7.8 86 1.1 W 9 11 5 6 1024.1 1023.6 0.4
28/07:30am 9.5 6.8 7.4 87 1.0 W 11 15 6 8 1023.7 1023.2 0.4
28/07:00am 9.4 6.4 7.5 88 0.9 W 13 17 7 9 1023.5 1023.0 0.4
28/06:30am 9.0 6.4 7.8 92 0.6 W 11 19 6 10 1023.3 1022.8 0.4
28/06:21am 8.7 6.6 8.1 96 0.3 WNW 9 15 5 8 1023.3 1022.8 0.4
28/06:00am 7.9 5.7 7.8 99 0.0 W 9 17 5 9 1023.3 1022.8 0.4
28/05:32am 8.3 6.4 7.4 94 0.4 WNW 7 15 4 8 1023.2 1022.7 0.4
28/05:30am 8.6 6.4 7.7 94 0.4 W 9 15 5 8 1023.2 1022.7 0.4
28/05:00am 8.8 6.3 8.0 95 0.4 W 11 15 6 8 1022.9 1022.4 0.4
28/04:30am 8.7 5.4 8.1 96 0.3 W 15 19 8 10 1022.7 1022.1 0.4
28/04:12am 8.5 5.6 8.1 97 0.2 W 13 19 7 10 1022.7 1022.1 0.4
28/04:00am 8.5 6.0 8.2 98 0.1 W 11 17 6 9 1022.7 1022.1 0.4
28/03:30am 8.3 5.7 7.9 97 0.2 W 11 15 6 8 1022.7 1022.1 0.4
28/03:00am 8.4 5.9 8.0 97 0.2 W 11 15 6 8 1022.8 1022.3 0.4
28/02:45am 8.3 5.3 7.9 97 0.2 W 13 17 7 9 1022.9 1022.4 0.4
28/02:30am 8.2 5.6 7.8 97 0.2 W 11 17 6 9 1023.0 1022.5 0.4
28/02:12am 8.1 5.5 7.8 98 0.1 W 11 15 6 8 1023.1 1022.6 0.4
28/02:00am 8.1 5.5 7.8 98 0.1 W 11 17 6 9 1023.0 1022.5 0.4
28/01:30am 7.9 5.3 7.6 98 0.1 W 11 17 6 9 1023.2 1022.7 0.4
28/01:26am 7.9 4.9 7.6 98 0.1 W 13 17 7 9 1023.2 1022.7 0.4
28/01:07am 8.0 5.0 7.7 98 0.1 W 13 17 7 9 1023.3 1022.8 0.4
28/01:00am 7.9 5.2 7.5 97 0.2 W 11 13 6 7 1023.1 1022.6 0.4
28/12:30am 8.0 4.5 7.1 94 0.4 WSW 15 19 8 10 1023.3 1022.8 0.4
28/12:18am 8.2 5.0 6.8 91 0.7 WSW 13 17 7 9 1023.5 1023.0 0.4
28/12:00am 8.0 4.8 6.8 92 0.6 WSW 13 15 7 8 1023.5 1023.0 0.4
 
Date/Time
EST
Temp
°C
App
Temp
°C
Dew
Point
°C
Rel
Hum
%
Delta-T
°C
Wind Press
QNH
hPa
Press
MSL
hPa
Rain since
9am
mm
Dir  Spd
km/h
Gust
km/h
Spd
kts
Gust
kts
27/11:30pm 8.1 4.9 6.9 92 0.6 WSW 13 17 7 9 1023.5 1023.0 0.4
27/11:00pm 8.1 4.9 6.7 91 0.7 SW 13 17 7 9 1023.5 1023.0 0.4
27/10:30pm 7.9 5.1 6.8 93 0.5 WSW 11 13 6 7 1023.5 1023.0 0.4
27/10:00pm 8.1 4.9 6.7 91 0.7 SW 13 20 7 11 1023.4 1022.9 0.4
27/09:30pm 8.0 4.7 6.6 91 0.7 SW 13 17 7 9 1023.4 1022.9 0.4
27/09:00pm 7.8 4.5 6.3 90 0.7 SW 13 19 7 10 1023.3 1022.8 0.4
27/08:48pm 7.8 4.5 6.3 90 0.7 SW 13 17 7 9 1023.2 1022.7 0.4
27/08:30pm 7.7 4.7 5.8 88 0.9 SW 11 15 6 8 1023.2 1022.7 0.4
27/08:00pm 7.5 4.8 5.6 88 0.9 SSW 9 13 5 7 1023.2 1022.7 0.4
27/07:56pm 7.6 4.9 5.7 88 0.9 SSW 9 13 5 7 1023.2 1022.7 0.4
27/07:30pm 7.7 4.7 6.0 89 0.8 SSW 11 17 6 9 1023.3 1022.8 0.4
27/07:00pm 7.7 4.4 6.3 91 0.7 SW 13 17 7 9 1023.2 1022.7 0.4
27/06:30pm 7.7 4.4 6.3 91 0.7 SW 13 15 7 8 1022.7 1022.1 0.4
27/06:00pm 7.7 4.8 6.5 92 0.6 SSW 11 13 6 7 1022.6 1022.0 0.4
27/05:30pm 7.8 5.3 6.4 91 0.7 SSW 9 15 5 8 1022.3 1021.8 0.4
27/05:03pm 8.0 4.3 6.3 89 0.8 SW 15 20 8 11 1022.3 1021.8 0.4
27/05:00pm 7.9 4.2 6.2 89 0.8 SW 15 24 8 13 1022.3 1021.8 0.4
27/04:35pm 8.2 4.4 6.0 86 1.0 SSW 15 24 8 13 1022.5 1021.9 0.4
27/04:30pm 8.4 4.7 6.2 86 1.0 SSW 15 20 8 11 1022.6 1022.0 0.4
27/04:00pm 8.1 3.9 5.9 86 1.0 SSW 17 26 9 14 1022.6 1022.0 0.4
27/03:30pm 8.6 4.3 5.4 80 1.5 SSW 17 28 9 15 1022.5 1021.9 0.4
27/03:00pm 8.9 4.4 6.0 82 1.4 SSE 19 26 10 14 1022.3 1021.8 0.4
27/02:30pm 8.2 4.3 5.3 82 1.3 SSW 15 22 8 12 1022.6 1022.0 0.4
27/02:00pm 8.3 3.4 4.9 79 1.6 SSW 20 35 11 19 1022.5 1021.9 0.4
27/01:30pm 8.1 4.6 7.2 94 0.4 SSW 15 22 8 12 1022.1 1021.6 0.4

Other Formats:

Comma delimited format used in spreadsheet applications
http://www.bom.gov.au/fwo/IDV60801/IDV60801.94860.axf

JavaScript Object Notation format (JSON) in row-major order
http://www.bom.gov.au/fwo/IDV60801/IDV60801.94860.json